createdAt,value
2018-10-03T00:00:28.414Z,12.13
2018-10-03T00:03:31.338Z,12.11
2018-10-03T00:06:34.255Z,12.07
2018-10-03T00:09:37.254Z,12.16
2018-10-03T00:12:40.201Z,12.10
2018-10-03T00:15:43.096Z,12.05
2018-10-03T00:18:46.029Z,11.99
2018-10-03T00:21:48.989Z,11.96
2018-10-03T00:24:51.929Z,12.06
2018-10-03T00:27:54.813Z,12.02
2018-10-03T00:30:57.720Z,11.98
2018-10-03T00:34:00.654Z,12.02
2018-10-03T00:37:03.572Z,11.89
2018-10-03T00:40:06.629Z,11.99
2018-10-03T00:43:09.530Z,11.96
2018-10-03T00:46:12.481Z,12.06
2018-10-03T00:49:15.378Z,12.07
2018-10-03T00:52:18.270Z,12.07
2018-10-03T00:55:21.199Z,12.11
2018-10-03T00:58:24.144Z,12.15
2018-10-03T01:01:27.181Z,12.07
2018-10-03T01:04:30.106Z,12.10
2018-10-03T01:07:33.010Z,12.12
2018-10-03T01:10:35.922Z,12.11
2018-10-03T01:13:39.078Z,12.06
2018-10-03T01:16:42.019Z,12.06
2018-10-03T01:19:44.970Z,12.02
2018-10-03T01:22:47.901Z,11.95
2018-10-03T01:25:50.754Z,12.02
2018-10-03T01:28:53.650Z,11.99
2018-10-03T01:31:56.584Z,11.97
2018-10-03T01:34:59.473Z,11.98
2018-10-03T01:38:02.416Z,12.01
2018-10-03T01:41:05.365Z,11.94
2018-10-03T01:44:08.769Z,12.02
2018-10-03T01:47:11.683Z,12.01
2018-10-03T01:50:14.610Z,11.98
2018-10-03T01:53:17.507Z,11.88
2018-10-03T01:56:20.428Z,11.92
2018-10-03T01:59:23.372Z,11.89
2018-10-03T02:02:26.313Z,11.81
2018-10-03T02:05:29.165Z,11.84
2018-10-03T02:08:32.076Z,11.83
2018-10-03T02:11:34.966Z,11.76
2018-10-03T02:14:37.917Z,11.69
2018-10-03T02:17:40.817Z,11.67
2018-10-03T02:20:43.761Z,11.71
2018-10-03T02:23:46.836Z,11.72
2018-10-03T02:26:49.767Z,11.78
2018-10-03T02:29:52.643Z,11.72
2018-10-03T02:32:55.590Z,11.77
2018-10-03T02:35:58.505Z,11.78
2018-10-03T02:39:01.454Z,11.79
2018-10-03T02:42:04.574Z,11.78
2018-10-03T02:45:07.549Z,11.82
2018-10-03T02:48:10.444Z,11.87
2018-10-03T02:51:13.346Z,11.89
2018-10-03T02:54:16.377Z,11.83
2018-10-03T02:57:19.316Z,11.87
2018-10-03T03:00:22.260Z,11.92
2018-10-03T03:03:25.157Z,11.92
2018-10-03T03:06:28.002Z,11.91
2018-10-03T03:09:30.940Z,11.90
2018-10-03T03:12:33.896Z,11.91
2018-10-03T03:15:36.863Z,11.86
2018-10-03T03:18:39.791Z,11.87
2018-10-03T03:21:42.737Z,11.89
2018-10-03T03:24:45.649Z,11.90
2018-10-03T03:27:48.592Z,11.86
2018-10-03T03:30:51.537Z,11.82
2018-10-03T03:33:54.453Z,11.85
2018-10-03T03:36:57.380Z,11.82
2018-10-03T03:40:01.116Z,11.79
2018-10-03T03:43:04.081Z,11.81
2018-10-03T03:46:06.998Z,11.82
2018-10-03T03:49:09.870Z,11.77
2018-10-03T03:52:12.738Z,11.77
2018-10-03T03:55:15.678Z,11.75
2018-10-03T03:58:18.555Z,11.75
2018-10-03T04:01:21.500Z,11.80
2018-10-03T04:04:24.494Z,11.84
2018-10-03T04:07:27.381Z,11.80
2018-10-03T04:10:30.305Z,11.71
2018-10-03T04:13:33.265Z,11.84
2018-10-03T04:16:36.224Z,11.82
2018-10-03T04:19:39.146Z,11.88
2018-10-03T04:22:42.083Z,11.84
2018-10-03T04:25:44.990Z,11.89
2018-10-03T04:28:48.056Z,11.83
2018-10-03T04:31:50.968Z,11.83
2018-10-03T04:34:53.843Z,11.88
2018-10-03T04:37:56.748Z,11.84
2018-10-03T04:40:59.659Z,11.83
2018-10-03T04:44:02.673Z,11.86
2018-10-03T04:47:05.640Z,11.86
2018-10-03T04:50:08.546Z,11.85
2018-10-03T04:53:11.429Z,11.87
2018-10-03T04:56:14.401Z,11.87
2018-10-03T04:59:17.365Z,11.89
2018-10-03T05:02:20.304Z,11.76
2018-10-03T05:05:23.205Z,11.78
2018-10-03T05:08:26.137Z,11.83
2018-10-03T05:11:29.202Z,11.81
2018-10-03T05:14:31.997Z,11.79
2018-10-03T05:17:35.144Z,11.72
2018-10-03T05:20:38.152Z,11.77
2018-10-03T05:23:41.066Z,11.74
2018-10-03T05:26:44.134Z,11.70
2018-10-03T05:29:47.113Z,11.73
2018-10-03T05:32:50.023Z,11.70
2018-10-03T05:35:53.225Z,11.84
2018-10-03T05:38:56.190Z,11.82
2018-10-03T05:41:59.172Z,11.73
2018-10-03T05:45:02.721Z,11.78
2018-10-03T05:48:05.813Z,11.79
2018-10-03T05:51:08.737Z,11.73
2018-10-03T05:54:11.765Z,11.77
2018-10-03T05:57:14.738Z,11.77
2018-10-03T06:00:17.751Z,11.83
2018-10-03T06:03:20.685Z,11.72
2018-10-03T06:06:23.679Z,11.79
2018-10-03T06:09:26.745Z,11.78
2018-10-03T06:12:29.672Z,11.74
2018-10-03T06:15:32.624Z,11.68
2018-10-03T06:18:35.772Z,11.71
2018-10-03T06:21:38.812Z,11.76
2018-10-03T06:24:41.732Z,11.77
2018-10-03T06:27:44.735Z,11.71
2018-10-03T06:30:47.626Z,11.64
2018-10-03T06:33:50.681Z,11.69
2018-10-03T06:36:53.609Z,11.67
2018-10-03T06:39:56.636Z,11.74
2018-10-03T06:42:59.601Z,11.64
2018-10-03T06:46:02.516Z,11.70
2018-10-03T06:49:05.581Z,11.79
2018-10-03T06:52:08.614Z,11.84
2018-10-03T06:55:11.561Z,11.76
2018-10-03T06:58:14.515Z,11.84
2018-10-03T07:01:17.442Z,11.85
2018-10-03T07:04:20.376Z,11.97
2018-10-03T07:07:23.361Z,12.00
2018-10-03T07:10:26.345Z,12.01
2018-10-03T07:13:29.272Z,12.13
2018-10-03T07:16:32.193Z,12.13
2018-10-03T07:19:35.172Z,12.09
2018-10-03T07:22:38.104Z,12.15
2018-10-03T07:25:41.050Z,12.19
2018-10-03T07:28:43.929Z,12.21
2018-10-03T07:31:46.961Z,12.15
2018-10-03T07:34:49.867Z,12.21
2018-10-03T07:37:52.788Z,12.24
2018-10-03T07:40:56.468Z,12.27
2018-10-03T07:43:59.483Z,12.23
2018-10-03T07:47:02.390Z,12.25
2018-10-03T07:50:05.825Z,12.29
2018-10-03T07:53:08.765Z,12.35
2018-10-03T07:56:11.847Z,12.39
2018-10-03T07:59:14.793Z,12.40
2018-10-03T08:02:17.770Z,12.45
2018-10-03T08:05:20.697Z,12.45
2018-10-03T08:08:23.616Z,12.52
2018-10-03T08:11:26.599Z,12.53
2018-10-03T08:14:29.494Z,12.65
2018-10-03T08:17:32.478Z,12.60
2018-10-03T08:20:35.375Z,12.68
2018-10-03T08:23:38.297Z,12.74
2018-10-03T08:26:41.260Z,13.00
2018-10-03T08:29:44.173Z,12.79
2018-10-03T08:32:47.291Z,12.81
2018-10-03T08:35:50.106Z,12.84
2018-10-03T08:38:53.052Z,12.75
2018-10-03T08:41:55.981Z,12.79
2018-10-03T08:44:58.922Z,12.82
2018-10-03T08:48:01.878Z,12.81
2018-10-03T08:51:04.930Z,12.77
2018-10-03T08:54:07.902Z,12.77
2018-10-03T08:57:10.853Z,12.71
2018-10-03T09:00:13.845Z,12.78
2018-10-03T09:03:16.780Z,12.76
2018-10-03T09:06:19.760Z,12.80
2018-10-03T09:09:22.681Z,12.83
2018-10-03T09:12:25.594Z,12.77
2018-10-03T09:15:28.462Z,12.80
2018-10-03T09:18:31.405Z,12.84
2018-10-03T09:21:34.371Z,12.88
2018-10-03T09:24:37.299Z,12.99
2018-10-03T09:27:40.206Z,12.98
2018-10-03T09:30:43.178Z,13.16
2018-10-03T09:33:46.152Z,13.21
2018-10-03T09:36:49.093Z,13.25
2018-10-03T09:39:52.041Z,13.31
2018-10-03T09:42:54.993Z,13.35
2018-10-03T09:45:57.936Z,13.27
2018-10-03T09:49:00.886Z,13.29
2018-10-03T09:52:03.866Z,13.30
2018-10-03T09:55:07.339Z,13.28
2018-10-03T09:58:10.281Z,13.30
2018-10-03T10:01:18.986Z,13.31
2018-10-03T10:04:21.867Z,13.26
2018-10-03T10:07:24.769Z,13.29
2018-10-03T10:10:27.705Z,13.34
2018-10-03T10:13:30.590Z,13.43
2018-10-03T10:16:33.537Z,13.50
2018-10-03T10:19:36.511Z,13.52
2018-10-03T10:22:39.422Z,13.63
2018-10-03T10:25:42.365Z,13.63
2018-10-03T10:28:45.288Z,13.77
2018-10-03T10:31:48.212Z,14.05
2018-10-03T10:34:51.143Z,13.97
2018-10-03T10:37:54.141Z,14.20
2018-10-03T10:40:57.043Z,14.12
2018-10-03T10:43:59.961Z,14.06
2018-10-03T10:47:02.901Z,14.31
2018-10-03T10:50:05.986Z,14.53
2018-10-03T10:53:09.062Z,15.51
2018-10-03T10:56:12.032Z,15.66
2018-10-03T10:59:15.082Z,15.55
2018-10-03T11:02:18.109Z,15.25
2018-10-03T11:05:21.169Z,15.03
2018-10-03T11:08:24.114Z,14.52
2018-10-03T11:11:27.141Z,14.22
2018-10-03T11:14:30.109Z,14.06
2018-10-03T11:17:33.018Z,13.88
2018-10-03T11:20:35.960Z,13.92
2018-10-03T11:23:38.981Z,14.40
2018-10-03T11:26:41.812Z,14.49
2018-10-03T11:29:44.756Z,14.30
2018-10-03T11:32:47.644Z,14.19
2018-10-03T11:35:50.613Z,14.12
2018-10-03T11:38:53.541Z,14.24
2018-10-03T11:41:56.503Z,14.68
2018-10-03T11:44:59.458Z,15.16
2018-10-03T11:48:02.456Z,15.30
2018-10-03T11:51:05.388Z,15.56
2018-10-03T11:54:08.751Z,15.94
2018-10-03T11:57:11.703Z,15.49
2018-10-03T12:00:14.646Z,15.11
2018-10-03T12:03:17.816Z,14.73
2018-10-03T12:06:20.720Z,14.64
2018-10-03T12:09:24.699Z,14.49
2018-10-03T12:12:27.676Z,14.53
2018-10-03T12:15:30.640Z,14.85
2018-10-03T12:18:33.598Z,15.38
2018-10-03T12:21:36.565Z,15.75
2018-10-03T12:24:39.571Z,16.12
2018-10-03T12:27:42.707Z,16.63
2018-10-03T12:30:45.673Z,16.88
2018-10-03T12:33:48.737Z,17.04
2018-10-03T12:36:51.603Z,16.94
2018-10-03T12:39:54.578Z,17.05
2018-10-03T12:42:57.508Z,17.35
2018-10-03T12:46:00.437Z,17.43
2018-10-03T12:49:03.361Z,17.36
2018-10-03T12:52:07.017Z,17.23
2018-10-03T12:55:09.957Z,17.44
2018-10-03T12:58:12.965Z,17.64
2018-10-03T13:01:16.094Z,17.53
2018-10-03T13:04:19.008Z,17.55
2018-10-03T13:07:21.973Z,17.46
2018-10-03T13:10:24.958Z,17.10
2018-10-03T13:13:27.874Z,17.37
2018-10-03T13:16:30.806Z,16.98
2018-10-03T13:19:33.727Z,17.59
2018-10-03T13:22:44.081Z,17.86
2018-10-03T13:25:47.026Z,17.65
2018-10-03T13:28:50.014Z,17.65
2018-10-03T13:31:53.003Z,17.74
2018-10-03T13:34:55.977Z,17.85
2018-10-03T13:37:58.866Z,17.62
2018-10-03T13:41:01.943Z,18.01
2018-10-03T13:44:04.861Z,17.73
2018-10-03T13:47:07.850Z,17.47
2018-10-03T13:50:10.900Z,17.87
2018-10-03T13:53:13.822Z,17.95
2018-10-03T13:56:16.731Z,17.64
2018-10-03T13:59:19.726Z,18.04
2018-10-03T14:02:22.715Z,17.79
2018-10-03T14:05:25.614Z,17.77
2018-10-03T14:08:28.566Z,17.35
2018-10-03T14:11:31.481Z,16.64
2018-10-03T14:14:34.409Z,16.30
2018-10-03T14:17:37.323Z,16.53
2018-10-03T14:20:40.332Z,16.73
2018-10-03T14:23:43.286Z,17.33
2018-10-03T14:26:46.206Z,17.41
2018-10-03T14:29:49.141Z,17.61
2018-10-03T14:32:52.168Z,17.47
2018-10-03T14:35:55.025Z,17.83
2018-10-03T14:38:57.989Z,17.96
2018-10-03T14:42:01.009Z,17.21
2018-10-03T14:45:03.981Z,16.97
2018-10-03T14:48:06.875Z,16.67
2018-10-03T14:51:09.810Z,16.54
2018-10-03T14:54:12.726Z,16.64
2018-10-03T14:57:15.653Z,16.20
2018-10-03T15:00:18.615Z,15.90
2018-10-03T15:03:21.562Z,15.69
2018-10-03T15:06:24.546Z,15.46
2018-10-03T15:09:27.506Z,15.36
2018-10-03T15:12:30.484Z,15.26
2018-10-03T15:15:33.458Z,15.14
2018-10-03T15:18:36.425Z,15.13
2018-10-03T15:21:39.396Z,15.19
2018-10-03T15:24:42.335Z,15.05
2018-10-03T15:27:45.295Z,15.02
2018-10-03T15:30:48.253Z,14.96
2018-10-03T15:33:51.190Z,14.90
2018-10-03T15:36:54.240Z,14.91
2018-10-03T15:39:57.158Z,14.83
2018-10-03T15:43:00.145Z,14.83
2018-10-03T15:46:03.048Z,14.76
2018-10-03T15:49:05.999Z,14.73
2018-10-03T15:52:08.948Z,14.74
2018-10-03T15:55:11.839Z,14.70
2018-10-03T15:58:14.817Z,14.68
2018-10-03T16:01:17.746Z,14.70
2018-10-03T16:04:20.681Z,14.65
2018-10-03T16:07:23.630Z,14.66
2018-10-03T16:10:26.525Z,14.63
2018-10-03T16:13:29.433Z,14.58
2018-10-03T16:16:32.411Z,14.55
2018-10-03T16:19:35.385Z,14.60
2018-10-03T16:22:38.361Z,14.57
2018-10-03T16:25:41.331Z,14.48
2018-10-03T16:28:44.246Z,14.33
2018-10-03T16:31:47.217Z,14.30
2018-10-03T16:34:50.173Z,14.19
2018-10-03T16:37:53.131Z,14.15
2018-10-03T16:41:59.574Z,14.07
2018-10-03T16:45:02.612Z,13.95
2018-10-03T16:48:06.090Z,13.97
2018-10-03T16:51:09.032Z,13.88
2018-10-03T16:54:12.023Z,13.88
2018-10-03T16:57:14.925Z,13.88
2018-10-03T17:00:17.923Z,13.77
2018-10-03T17:03:20.875Z,13.81
2018-10-03T17:06:24.000Z,13.64
2018-10-03T17:09:27.175Z,13.60
2018-10-03T17:12:30.469Z,13.56
2018-10-03T17:15:33.697Z,13.54
2018-10-03T17:18:37.093Z,13.54
2018-10-03T17:21:40.238Z,13.47
2018-10-03T17:24:43.216Z,13.44
2018-10-03T17:27:46.210Z,13.41
2018-10-03T17:30:49.094Z,13.33
2018-10-03T17:33:52.025Z,13.35
2018-10-03T17:36:56.021Z,13.17
2018-10-03T17:39:59.050Z,13.08
2018-10-03T17:43:02.038Z,13.21
2018-10-03T17:46:05.020Z,13.20
2018-10-03T17:49:08.083Z,13.08
2018-10-03T17:52:10.946Z,13.12
2018-10-03T17:55:13.945Z,13.04
2018-10-03T17:58:16.894Z,12.96
2018-10-03T18:01:19.941Z,12.80
2018-10-03T18:04:22.914Z,12.90
2018-10-03T18:07:26.553Z,12.72
2018-10-03T18:10:29.644Z,12.73
2018-10-03T18:13:32.545Z,12.65
2018-10-03T18:16:35.721Z,12.72
2018-10-03T18:19:39.339Z,12.78
2018-10-03T18:22:42.584Z,12.70
2018-10-03T18:25:45.921Z,12.78
2018-10-03T18:28:48.831Z,12.76
2018-10-03T18:31:51.837Z,12.79
2018-10-03T18:34:55.517Z,12.71
2018-10-03T18:37:59.147Z,12.73
2018-10-03T18:41:02.753Z,12.79
2018-10-03T18:44:06.058Z,12.72
2018-10-03T18:47:09.059Z,12.64
2018-10-03T18:50:12.049Z,12.81
2018-10-03T18:53:16.000Z,12.82
2018-10-03T18:56:19.417Z,12.79
2018-10-03T18:59:23.032Z,12.75
2018-10-03T19:02:26.057Z,12.84
2018-10-03T19:05:29.110Z,12.78
2018-10-03T19:08:32.074Z,12.74
2018-10-03T19:11:35.581Z,12.82
2018-10-03T19:14:39.053Z,12.95
2018-10-03T19:17:42.571Z,12.84
2018-10-03T19:20:45.668Z,12.76
2018-10-03T19:23:48.613Z,12.67
2018-10-03T19:26:51.864Z,12.78
2018-10-03T19:29:55.230Z,12.78
2018-10-03T19:32:58.798Z,12.75
2018-10-03T19:36:02.105Z,12.98
2018-10-03T19:39:06.568Z,12.82
2018-10-03T19:42:09.590Z,12.71
2018-10-03T19:45:12.673Z,12.74
2018-10-03T19:48:16.348Z,12.71
2018-10-03T19:51:19.183Z,12.66
2018-10-03T19:54:22.100Z,12.65
2018-10-03T19:57:25.065Z,12.52
2018-10-03T20:00:27.979Z,12.56
2018-10-03T20:03:31.041Z,12.59
2018-10-03T20:06:33.988Z,12.56
2018-10-03T20:09:36.934Z,12.44
2018-10-03T20:12:39.924Z,12.35
2018-10-03T20:15:42.842Z,12.29
2018-10-03T20:18:45.873Z,12.23
2018-10-03T20:21:48.794Z,12.19
2018-10-03T20:24:51.738Z,12.17
2018-10-03T20:27:54.666Z,12.22
2018-10-03T20:30:57.625Z,11.98
2018-10-03T20:34:00.695Z,12.05
2018-10-03T20:37:03.719Z,11.92
2018-10-03T20:40:06.674Z,12.13
2018-10-03T20:43:09.574Z,12.17
2018-10-03T20:46:12.497Z,12.05
2018-10-03T20:49:15.540Z,11.73
2018-10-03T20:52:18.469Z,11.86
2018-10-03T20:55:21.413Z,11.91
2018-10-03T20:58:24.337Z,11.71
2018-10-03T21:01:27.296Z,11.72
2018-10-03T21:04:30.193Z,11.81
2018-10-03T21:07:33.089Z,11.68
2018-10-03T21:10:36.036Z,11.64
2018-10-03T21:13:38.986Z,11.49
2018-10-03T21:16:42.021Z,11.58
2018-10-03T21:19:45.237Z,11.62
2018-10-03T21:22:48.223Z,11.24
2018-10-03T21:25:51.094Z,11.47
2018-10-03T21:28:54.201Z,11.63
2018-10-03T21:31:57.129Z,11.44
2018-10-03T21:35:00.601Z,11.48
2018-10-03T21:38:03.586Z,11.48
2018-10-03T21:41:06.532Z,11.45
2018-10-03T21:44:09.844Z,11.27
2018-10-03T21:47:13.000Z,11.49
2018-10-03T21:50:16.005Z,11.27
2018-10-03T21:53:18.881Z,11.39
2018-10-03T21:56:21.827Z,11.44
2018-10-03T21:59:24.815Z,11.45
2018-10-03T22:02:27.752Z,11.50
2018-10-03T22:05:30.661Z,11.48
2018-10-03T22:08:33.608Z,11.60
2018-10-03T22:11:36.513Z,11.57
2018-10-03T22:14:39.521Z,11.54
2018-10-03T22:17:42.436Z,11.45
2018-10-03T22:20:45.349Z,11.42
2018-10-03T22:23:48.279Z,11.38
2018-10-03T22:26:51.248Z,11.49
2018-10-03T22:29:54.189Z,11.30
2018-10-03T22:32:57.128Z,11.30
2018-10-03T22:36:00.081Z,11.41
2018-10-03T22:39:04.265Z,11.37
2018-10-03T22:42:07.332Z,11.36
2018-10-03T22:45:10.265Z,11.22
2018-10-03T22:48:13.211Z,11.32
2018-10-03T22:51:16.102Z,11.44
2018-10-03T22:54:18.986Z,11.47
2018-10-03T22:57:21.910Z,11.36
2018-10-03T23:00:24.818Z,11.41
2018-10-03T23:03:27.713Z,11.38
2018-10-03T23:06:30.656Z,11.32
2018-10-03T23:09:33.590Z,11.48
2018-10-03T23:12:36.489Z,11.30
2018-10-03T23:15:39.455Z,11.35
2018-10-03T23:18:42.341Z,11.47
2018-10-03T23:21:45.255Z,11.45
2018-10-03T23:24:48.174Z,11.50
2018-10-03T23:27:51.123Z,11.49
2018-10-03T23:30:54.066Z,11.46
2018-10-03T23:33:56.983Z,11.41
2018-10-03T23:36:59.913Z,11.49
2018-10-03T23:40:02.856Z,11.65
2018-10-03T23:43:05.804Z,11.53
2018-10-03T23:46:08.737Z,11.52
2018-10-03T23:49:11.624Z,11.42
2018-10-03T23:52:14.624Z,11.49
2018-10-03T23:55:17.565Z,11.58
2018-10-03T23:58:20.461Z,11.59
